^^
Saratoga-Weather Station Historical Data
Daily Summary for March 1, 2021 Units:  Both    English   Metric
Daily Weekly Monthly Yearly Custom
  High: Low: Average:
Temperature: 79.5 °F /  26.4 °C 50.9 °F /  10.5 °C 65.7 °F /  18.7 °C
Dew Point: 49.3 °F /  9.6 °C 43 °F /  6.1 °C 45.9 °F /  7.7 °C
Humidity: 76% 30% 52%
Wind Speed: 8.9mph /  14.3km/h - 1.5mph /  2.4km/h
Wind Gust: 12mph /  19.3km/h - -
Wind- - ESE
Pressure: 30 in /  1016.9 hPa 29.9 in /  1011.2 hPa -
Precipitation: 0 in /  0.0 mm    
Historical Graphs
 
 
Tabular Data for March 1, 2021
Time Temperature Dew Point Pressure Wind Wind Speed Wind Gust Humidity Rainfall Rate (Hourly) solar
00:00 56.7 °F /  13.7 °C 45.5 °F /  7.5 °C 30in /  1016.9hPa ESE 0.9mph /  1.4km/h 2mph /  3.2km/h 66% 0in /  0.0mm 0 W/m2
00:05 56.5 °F /  13.6 °C 45.3 °F /  7.4 °C 30in /  1016.9hPa Calm   1mph /  1.6km/h 66% 0in /  0.0mm 0 W/m2
00:10 56.5 °F /  13.6 °C 45.7 °F /  7.6 °C 30in /  1016.9hPa ESE 0.9mph /  1.4km/h 2mph /  3.2km/h 67% 0in /  0.0mm 0 W/m2
00:15 56.3 °F /  13.5 °C 45.5 °F /  7.5 °C 30in /  1016.9hPa ESE 0.9mph /  1.4km/h 2mph /  3.2km/h 67% 0in /  0.0mm 0 W/m2
00:20 56.5 °F /  13.6 °C 45.3 °F /  7.4 °C 30in /  1016.9hPa ESE 0.9mph /  1.4km/h 2mph /  3.2km/h 66% 0in /  0.0mm 0 W/m2
00:25 56.3 °F /  13.5 °C 45.1 °F /  7.3 °C 30in /  1016.9hPa ESE 0.9mph /  1.4km/h 2mph /  3.2km/h 66% 0in /  0.0mm 0 W/m2
00:31 56.3 °F /  13.5 °C 45.1 °F /  7.3 °C 30in /  1016.9hPa ESE 0.9mph /  1.4km/h 2mph /  3.2km/h 66% 0in /  0.0mm 0 W/m2
00:36 56.1 °F /  13.4 °C 45 °F /  7.2 °C 30in /  1016.9hPa ESE 0.9mph /  1.4km/h 2mph /  3.2km/h 66% 0in /  0.0mm 0 W/m2
00:41 55.9 °F /  13.3 °C 44.8 °F /  7.1 °C 30in /  1016.6hPa Calm   1mph /  1.6km/h 66% 0in /  0.0mm 0 W/m2
00:46 55.8 °F /  13.2 °C 44.2 °F /  6.8 °C 30in /  1016.6hPa Calm   1mph /  1.6km/h 65% 0in /  0.0mm 0 W/m2
00:51 55.8 °F /  13.2 °C 44.6 °F /  7 °C 30in /  1016.6hPa Calm   2mph /  3.2km/h 66% 0in /  0.0mm 0 W/m2
00:56 55.6 °F /  13.1 °C 44.4 °F /  6.9 °C 30in /  1016.6hPa Calm     66% 0in /  0.0mm 0 W/m2
01:01 55.2 °F /  12.9 °C 44.1 °F /  6.7 °C 30in /  1016.6hPa Calm   1mph /  1.6km/h 66% 0in /  0.0mm 0 W/m2
01:06 55 °F /  12.8 °C 44.2 °F /  6.8 °C 30in /  1016.6hPa SSE 2mph /  3.2km/h 2mph /  3.2km/h 67% 0in /  0.0mm 0 W/m2
01:11 54.9 °F /  12.7 °C 44.1 °F /  6.7 °C 30in /  1016.6hPa Calm   2mph /  3.2km/h 67% 0in /  0.0mm 0 W/m2
01:17 54.7 °F /  12.6 °C 44.2 °F /  6.8 °C 30in /  1016.6hPa Calm   1mph /  1.6km/h 68% 0in /  0.0mm 0 W/m2
01:22 54.3 °F /  12.4 °C 44.1 °F /  6.7 °C 30in /  1016.6hPa Calm     68% 0in /  0.0mm 0 W/m2
01:27 54.3 °F /  12.4 °C 44.1 °F /  6.7 °C 30in /  1016.6hPa Calm   1mph /  1.6km/h 68% 0in /  0.0mm 0 W/m2
01:32 54.1 °F /  12.3 °C 44.2 °F /  6.8 °C 30in /  1016.6hPa SSE 0.9mph /  1.4km/h 1mph /  1.6km/h 69% 0in /  0.0mm 0 W/m2
01:37 54.1 °F /  12.3 °C 44.2 °F /  6.8 °C 30in /  1016.6hPa Calm   1mph /  1.6km/h 69% 0in /  0.0mm 0 W/m2
01:42 54 °F /  12.2 °C 44.1 °F /  6.7 °C 30in /  1016.6hPa Calm   1mph /  1.6km/h 69% 0in /  0.0mm 0 W/m2
01:47 54 °F /  12.2 °C 44.1 °F /  6.7 °C 30in /  1016.6hPa Calm     69% 0in /  0.0mm 0 W/m2
01:52 53.8 °F /  12.1 °C 43.9 °F /  6.6 °C 30in /  1016.6hPa SSE 0.9mph /  1.4km/h 1mph /  1.6km/h 69% 0in /  0.0mm 0 W/m2
01:57 53.8 °F /  12.1 °C 43.9 °F /  6.6 °C 30in /  1016.3hPa Calm     69% 0in /  0.0mm 0 W/m2
02:02 53.6 °F /  12 °C 44.1 °F /  6.7 °C 30in /  1016.3hPa Calm     70% 0in /  0.0mm 0 W/m2
02:07 53.4 °F /  11.9 °C 43.9 °F /  6.6 °C 30in /  1016.6hPa Calm   2mph /  3.2km/h 70% 0in /  0.0mm 0 W/m2
02:12 53.4 °F /  11.9 °C 44.2 °F /  6.8 °C 30in /  1016.6hPa Calm     71% 0in /  0.0mm 0 W/m2
02:17 53.2 °F /  11.8 °C 44.1 °F /  6.7 °C 30in /  1016.3hPa SSE 0.9mph /  1.4km/h 1mph /  1.6km/h 71% 0in /  0.0mm 0 W/m2
02:22 53.2 °F /  11.8 °C 44.1 °F /  6.7 °C 30in /  1016.3hPa SSE 0.9mph /  1.4km/h 1mph /  1.6km/h 71% 0in /  0.0mm 0 W/m2
02:27 53.1 °F /  11.7 °C 44.2 °F /  6.8 °C 30in /  1016.3hPa SSE 2mph /  3.2km/h 2mph /  3.2km/h 72% 0in /  0.0mm 0 W/m2
02:32 53.1 °F /  11.7 °C 44.2 °F /  6.8 °C 30in /  1016.3hPa SSE 0.9mph /  1.4km/h 2mph /  3.2km/h 72% 0in /  0.0mm 0 W/m2
02:37 52.9 °F /  11.6 °C 44.1 °F /  6.7 °C 30in /  1016.3hPa SSE 0.9mph /  1.4km/h 2mph /  3.2km/h 72% 0in /  0.0mm 0 W/m2
02:42 52.5 °F /  11.4 °C 43.7 °F /  6.5 °C 30in /  1016.3hPa Calm     72% 0in /  0.0mm 0 W/m2
02:47 52.5 °F /  11.4 °C 44.1 °F /  6.7 °C 30in /  1016.3hPa SSE 0.9mph /  1.4km/h 2mph /  3.2km/h 73% 0in /  0.0mm 0 W/m2
02:52 52.5 °F /  11.4 °C 43.7 °F /  6.5 °C 30in /  1016.3hPa Calm   1mph /  1.6km/h 72% 0in /  0.0mm 0 W/m2
02:57 52.7 °F /  11.5 °C 43.9 °F /  6.6 °C 30in /  1016.3hPa Calm   2mph /  3.2km/h 72% 0in /  0.0mm 0 W/m2
03:02 52.9 °F /  11.6 °C 44.1 °F /  6.7 °C 30in /  1016.3hPa Calm     72% 0in /  0.0mm 0 W/m2
03:07 52.9 °F /  11.6 °C 44.1 °F /  6.7 °C 30in /  1016.3hPa Calm   1mph /  1.6km/h 72% 0in /  0.0mm 0 W/m2
03:12 52.9 °F /  11.6 °C 44.1 °F /  6.7 °C 30in /  1016.3hPa Calm   1mph /  1.6km/h 72% 0in /  0.0mm 0 W/m2
03:17 52.9 °F /  11.6 °C 44.1 °F /  6.7 °C 30in /  1016.3hPa SSE 0.9mph /  1.4km/h 2mph /  3.2km/h 72% 0in /  0.0mm 0 W/m2
03:22 52.5 °F /  11.4 °C 43.7 °F /  6.5 °C 30in /  1016.3hPa Calm   2mph /  3.2km/h 72% 0in /  0.0mm 0 W/m2
03:27 52.5 °F /  11.4 °C 44.1 °F /  6.7 °C 30in /  1016.3hPa Calm   1mph /  1.6km/h 73% 0in /  0.0mm 0 W/m2
03:32 52.3 °F /  11.3 °C 43.9 °F /  6.6 °C 30in /  1016.3hPa Calm   2mph /  3.2km/h 73% 0in /  0.0mm 0 W/m2
03:37 52.3 °F /  11.3 °C 43.9 °F /  6.6 °C 30in /  1016.3hPa Calm     73% 0in /  0.0mm 0 W/m2
03:42 52.2 °F /  11.2 °C 44.1 °F /  6.7 °C 30in /  1016.3hPa Calm     74% 0in /  0.0mm 0 W/m2
03:47 52 °F /  11.1 °C 43.9 °F /  6.6 °C 30in /  1016.3hPa Calm     74% 0in /  0.0mm 0 W/m2
03:52 51.8 °F /  11 °C 43.7 °F /  6.5 °C 30in /  1016.3hPa Calm     74% 0in /  0.0mm 0 W/m2
03:57 51.6 °F /  10.9 °C 43.9 °F /  6.6 °C 30in /  1016.3hPa Calm     75% 0in /  0.0mm 0 W/m2
04:02 51.4 °F /  10.8 °C 43.7 °F /  6.5 °C 30in /  1016.3hPa Calm   2mph /  3.2km/h 75% 0in /  0.0mm 0 W/m2
04:07 51.3 °F /  10.7 °C 43.9 °F /  6.6 °C 30in /  1016.3hPa SSE 0.9mph /  1.4km/h 2mph /  3.2km/h 76% 0in /  0.0mm 0 W/m2
04:12 51.1 °F /  10.6 °C 43.7 °F /  6.5 °C 30in /  1016.3hPa Calm   2mph /  3.2km/h 76% 0in /  0.0mm 0 W/m2
04:17 51.1 °F /  10.6 °C 43.7 °F /  6.5 °C 30in /  1016.3hPa SSE 0.9mph /  1.4km/h 1mph /  1.6km/h 76% 0in /  0.0mm 0 W/m2
04:22 51.1 °F /  10.6 °C 43.7 °F /  6.5 °C 30in /  1016.3hPa Calm   2mph /  3.2km/h 76% 0in /  0.0mm 0 W/m2
04:27 51.1 °F /  10.6 °C 43.7 °F /  6.5 °C 30in /  1016.3hPa SSE 0.9mph /  1.4km/h 1mph /  1.6km/h 76% 0in /  0.0mm 0 W/m2
04:32 51.1 °F /  10.6 °C 43.7 °F /  6.5 °C 30in /  1016.3hPa Calm   1mph /  1.6km/h 76% 0in /  0.0mm 0 W/m2
04:37 51.1 °F /  10.6 °C 43.7 °F /  6.5 °C 30in /  1016.3hPa SSE 0.9mph /  1.4km/h 1mph /  1.6km/h 76% 0in /  0.0mm 0 W/m2
04:42 51.1 °F /  10.6 °C 43.7 °F /  6.5 °C 30in /  1016.3hPa Calm   2mph /  3.2km/h 76% 0in /  0.0mm 0 W/m2
04:47 51.3 °F /  10.7 °C 43.9 °F /  6.6 °C 30in /  1016.3hPa Calm   1mph /  1.6km/h 76% 0in /  0.0mm 0 W/m2
04:52 51.1 °F /  10.6 °C 43.7 °F /  6.5 °C 30in /  1016.3hPa Calm   2mph /  3.2km/h 76% 0in /  0.0mm 0 W/m2
04:57 51.1 °F /  10.6 °C 43.7 °F /  6.5 °C 30in /  1016.3hPa Calm     76% 0in /  0.0mm 0 W/m2
05:02 50.9 °F /  10.5 °C 43.5 °F /  6.4 °C 30in /  1016.3hPa SSE 2mph /  3.2km/h 2mph /  3.2km/h 76% 0in /  0.0mm 0 W/m2
05:07 50.9 °F /  10.5 °C 43.5 °F /  6.4 °C 30in /  1016.3hPa Calm   1mph /  1.6km/h 76% 0in /  0.0mm 0 W/m2
05:12 50.9 °F /  10.5 °C 43.5 °F /  6.4 °C 30in /  1016.3hPa Calm   1mph /  1.6km/h 76% 0in /  0.0mm 0 W/m2
05:17 51.1 °F /  10.6 °C 43.7 °F /  6.5 °C 30in /  1016.3hPa Calm     76% 0in /  0.0mm 0 W/m2
05:22 51.1 °F /  10.6 °C 43.7 °F /  6.5 °C 30in /  1016.3hPa Calm     76% 0in /  0.0mm 0 W/m2
05:27 51.3 °F /  10.7 °C 43.9 °F /  6.6 °C 30in /  1016.3hPa Calm   1mph /  1.6km/h 76% 0in /  0.0mm 0 W/m2
05:32 51.3 °F /  10.7 °C 43.5 °F /  6.4 °C 30in /  1016.3hPa Calm   1mph /  1.6km/h 75% 0in /  0.0mm 0 W/m2
05:37 51.3 °F /  10.7 °C 43.5 °F /  6.4 °C 30in /  1015.9hPa SSE 0.9mph /  1.4km/h 2mph /  3.2km/h 75% 0in /  0.0mm 5 W/m2
05:42 51.1 °F /  10.6 °C 43.5 °F /  6.4 °C 30in /  1016.3hPa SSE 0.9mph /  1.4km/h 2mph /  3.2km/h 75% 0in /  0.0mm 7 W/m2
05:47 51.1 °F /  10.6 °C 43.5 °F /  6.4 °C 30in /  1015.9hPa Calm   2mph /  3.2km/h 75% 0in /  0.0mm 9 W/m2
05:52 51.3 °F /  10.7 °C 43.5 °F /  6.4 °C 30in /  1015.9hPa SSE 0.9mph /  1.4km/h 1mph /  1.6km/h 75% 0in /  0.0mm 11 W/m2
05:57 51.3 °F /  10.7 °C 43.5 °F /  6.4 °C 30in /  1016.3hPa SSE 0.9mph /  1.4km/h 1mph /  1.6km/h 75% 0in /  0.0mm 12 W/m2
06:02 51.3 °F /  10.7 °C 43.5 °F /  6.4 °C 30in /  1016.3hPa SSE 2mph /  3.2km/h 2mph /  3.2km/h 75% 0in /  0.0mm 14 W/m2
06:07 51.4 °F /  10.8 °C 43.7 °F /  6.5 °C 30in /  1016.3hPa SSE 0.9mph /  1.4km/h 1mph /  1.6km/h 75% 0in /  0.0mm 16 W/m2
06:12 51.4 °F /  10.8 °C 43.7 °F /  6.5 °C 30in /  1016.3hPa Calm     75% 0in /  0.0mm 19 W/m2
06:17 51.6 °F /  10.9 °C 43.9 °F /  6.6 °C 30in /  1015.9hPa Calm     75% 0in /  0.0mm 21 W/m2
06:22 51.8 °F /  11 °C 44.4 °F /  6.9 °C 30in /  1015.9hPa Calm     76% 0in /  0.0mm 21 W/m2
06:27 52 °F /  11.1 °C 44.6 °F /  7 °C 30in /  1015.9hPa SSE 0.9mph /  1.4km/h 1mph /  1.6km/h 76% 0in /  0.0mm 23 W/m2
06:32 52.3 °F /  11.3 °C 44.2 °F /  6.8 °C 30in /  1016.3hPa SSE 0.9mph /  1.4km/h 1mph /  1.6km/h 74% 0in /  0.0mm 25 W/m2
06:37 52.7 °F /  11.5 °C 44.2 °F /  6.8 °C 30in /  1015.9hPa SSE 0.9mph /  1.4km/h 1mph /  1.6km/h 73% 0in /  0.0mm 26 W/m2
06:42 53.2 °F /  11.8 °C 44.1 °F /  6.7 °C 30in /  1016.3hPa WSW 0.9mph /  1.4km/h 2mph /  3.2km/h 71% 0in /  0.0mm 26 W/m2
06:47 53.6 °F /  12 °C 43.7 °F /  6.5 °C 30in /  1015.9hPa WSW 0.9mph /  1.4km/h 2mph /  3.2km/h 69% 0in /  0.0mm 28 W/m2
06:52 54 °F /  12.2 °C 44.1 °F /  6.7 °C 30in /  1015.9hPa WSW 0.9mph /  1.4km/h 2mph /  3.2km/h 69% 0in /  0.0mm 28 W/m2
06:57 54.3 °F /  12.4 °C 44.1 °F /  6.7 °C 30in /  1015.9hPa Calm   1mph /  1.6km/h 68% 0in /  0.0mm 30 W/m2
07:02 54.7 °F /  12.6 °C 44.2 °F /  6.8 °C 30in /  1015.9hPa WSW 2mph /  3.2km/h 2mph /  3.2km/h 68% 0in /  0.0mm 30 W/m2
07:07 54.9 °F /  12.7 °C 44.1 °F /  6.7 °C 30in /  1015.9hPa Calm     67% 0in /  0.0mm 32 W/m2
07:12 55 °F /  12.8 °C 44.6 °F /  7 °C 30in /  1015.9hPa Calm   1mph /  1.6km/h 68% 0in /  0.0mm 32 W/m2
07:17 55.2 °F /  12.9 °C 44.4 °F /  6.9 °C 30in /  1015.9hPa Calm   1mph /  1.6km/h 67% 0in /  0.0mm 33 W/m2
07:22 55.4 °F /  13 °C 44.6 °F /  7 °C 30in /  1015.9hPa Calm   1mph /  1.6km/h 67% 0in /  0.0mm 33 W/m2
07:27 55.6 °F /  13.1 °C 44.1 °F /  6.7 °C 30in /  1015.9hPa Calm   3mph /  4.8km/h 65% 0in /  0.0mm 33 W/m2
07:32 55.8 °F /  13.2 °C 44.2 °F /  6.8 °C 30in /  1015.9hPa Calm     65% 0in /  0.0mm 33 W/m2
07:37 56.1 °F /  13.4 °C 44.6 °F /  7 °C 30in /  1015.9hPa SE 2mph /  3.2km/h 2mph /  3.2km/h 65% 0in /  0.0mm 35 W/m2
07:42 56.5 °F /  13.6 °C 44.4 °F /  6.9 °C 30in /  1015.9hPa East 2mph /  3.2km/h 3mph /  4.8km/h 64% 0in /  0.0mm 209 W/m2
07:47 56.8 °F /  13.8 °C 44.8 °F /  7.1 °C 30in /  1015.9hPa NE 0.9mph /  1.4km/h 4mph /  6.4km/h 64% 0in /  0.0mm 255 W/m2
07:53 57.6 °F /  14.2 °C 45.1 °F /  7.3 °C 30in /  1015.9hPa East 2.9mph /  4.7km/h 5mph /  8km/h 63% 0in /  0.0mm 269 W/m2
07:58 58.5 °F /  14.7 °C 45.5 °F /  7.5 °C 30in /  1015.9hPa Calm   3mph /  4.8km/h 62% 0in /  0.0mm 220 W/m2
08:03 59.2 °F /  15.1 °C 45.3 °F /  7.4 °C 30in /  1015.6hPa ENE 4mph /  6.4km/h 4mph /  6.4km/h 60% 0in /  0.0mm 132 W/m2
08:08 59.5 °F /  15.3 °C 45.7 °F /  7.6 °C 30in /  1015.6hPa East 0.9mph /  1.4km/h 4mph /  6.4km/h 60% 0in /  0.0mm 49 W/m2
08:13 60.3 °F /  15.7 °C 45.5 °F /  7.5 °C 30in /  1015.6hPa Calm   3mph /  4.8km/h 58% 0in /  0.0mm 44 W/m2
08:18 60.6 °F /  15.9 °C 45.3 °F /  7.4 °C 30in /  1015.6hPa East 2.9mph /  4.7km/h 5mph /  8km/h 57% 0in /  0.0mm 44 W/m2
08:23 60.8 °F /  16 °C 45 °F /  7.2 °C 30in /  1015.6hPa NE 0.9mph /  1.4km/h 3mph /  4.8km/h 56% 0in /  0.0mm 44 W/m2
08:28 61.2 °F /  16.2 °C 45.3 °F /  7.4 °C 30in /  1015.6hPa NNW 0.9mph /  1.4km/h 3mph /  4.8km/h 56% 0in /  0.0mm 42 W/m2
08:33 61.3 °F /  16.3 °C 45 °F /  7.2 °C 30in /  1015.6hPa ENE 2mph /  3.2km/h 4mph /  6.4km/h 55% 0in /  0.0mm 42 W/m2
08:38 61.7 °F /  16.5 °C 45.3 °F /  7.4 °C 30in /  1015.6hPa WNW 0.9mph /  1.4km/h 3mph /  4.8km/h 55% 0in /  0.0mm 42 W/m2
08:43 61.7 °F /  16.5 °C 45.9 °F /  7.7 °C 30in /  1015.6hPa East 0.9mph /  1.4km/h 4mph /  6.4km/h 56% 0in /  0.0mm 42 W/m2
08:48 62.1 °F /  16.7 °C 45.7 °F /  7.6 °C 30in /  1015.6hPa ENE 2mph /  3.2km/h 6mph /  9.7km/h 55% 0in /  0.0mm 44 W/m2
08:53 62.2 °F /  16.8 °C 45.9 °F /  7.7 °C 30in /  1015.6hPa Calm   8mph /  12.9km/h 55% 0in /  0.0mm 42 W/m2
08:58 62.4 °F /  16.9 °C 46 °F /  7.8 °C 30in /  1015.2hPa NNE 2.9mph /  4.7km/h 6mph /  9.7km/h 55% 0in /  0.0mm 58 W/m2
09:03 62.8 °F /  17.1 °C 46.4 °F /  8 °C 30in /  1015.2hPa SE 0.9mph /  1.4km/h 4mph /  6.4km/h 55% 0in /  0.0mm 248 W/m2
09:08 63 °F /  17.2 °C 46.6 °F /  8.1 °C 30in /  1015.2hPa NNE 0.9mph /  1.4km/h 7mph /  11.3km/h 55% 0in /  0.0mm 434 W/m2
09:13 63 °F /  17.2 °C 46.6 °F /  8.1 °C 30in /  1015.6hPa NE 0.9mph /  1.4km/h 7mph /  11.3km/h 55% 0in /  0.0mm 494 W/m2
09:18 63.1 °F /  17.3 °C 46.8 °F /  8.2 °C 30in /  1015.2hPa ESE 2.9mph /  4.7km/h 7mph /  11.3km/h 55% 0in /  0.0mm 506 W/m2
09:23 63.3 °F /  17.4 °C 46.9 °F /  8.3 °C 30in /  1015.2hPa NE 6.9mph /  11.1km/h 8mph /  12.9km/h 55% 0in /  0.0mm 526 W/m2
09:28 63.9 °F /  17.7 °C 47.8 °F /  8.8 °C 30in /  1015.6hPa ENE 0.9mph /  1.4km/h 3mph /  4.8km/h 56% 0in /  0.0mm 538 W/m2
09:33 64.4 °F /  18 °C 47.8 °F /  8.8 °C 30in /  1015.2hPa East 2mph /  3.2km/h 4mph /  6.4km/h 55% 0in /  0.0mm 555 W/m2
09:38 65.1 °F /  18.4 °C 47.5 °F /  8.6 °C 30in /  1015.2hPa NNE 2.9mph /  4.7km/h 8mph /  12.9km/h 53% 0in /  0.0mm 568 W/m2
09:43 65.5 °F /  18.6 °C 48.4 °F /  9.1 °C 30in /  1015.2hPa North 2.9mph /  4.7km/h 7mph /  11.3km/h 54% 0in /  0.0mm 580 W/m2
09:48 65.8 °F /  18.8 °C 47.1 °F /  8.4 °C 30in /  1015.2hPa East 8.9mph /  14.3km/h 12mph /  19.3km/h 51% 0in /  0.0mm 596 W/m2
09:53 66 °F /  18.9 °C 46.4 °F /  8 °C 30in /  1015.2hPa NNE 2.9mph /  4.7km/h 9mph /  14.5km/h 49% 0in /  0.0mm 608 W/m2
09:58 66.4 °F /  19.1 °C 47.7 °F /  8.7 °C 30in /  1015.2hPa ENE 2mph /  3.2km/h 12mph /  19.3km/h 51% 0in /  0.0mm 557 W/m2
10:03 66.9 °F /  19.4 °C 46.6 °F /  8.1 °C 30in /  1015.2hPa ENE 2.9mph /  4.7km/h 8mph /  12.9km/h 48% 0in /  0.0mm 51 W/m2
10:08 67.1 °F /  19.5 °C 47.3 °F /  8.5 °C 30in /  1015.2hPa ENE 2mph /  3.2km/h 8mph /  12.9km/h 49% 0in /  0.0mm 104 W/m2
10:13 67.3 °F /  19.6 °C 46.4 °F /  8 °C 30in /  1015.2hPa East 2mph /  3.2km/h 6mph /  9.7km/h 47% 0in /  0.0mm 652 W/m2
10:18 67.5 °F /  19.7 °C 46.6 °F /  8.1 °C 30in /  1015.2hPa East 4mph /  6.4km/h 8mph /  12.9km/h 47% 0in /  0.0mm 670 W/m2
10:23 67.8 °F /  19.9 °C 46.2 °F /  7.9 °C 30in /  1014.9hPa NE 2mph /  3.2km/h 10mph /  16.1km/h 46% 0in /  0.0mm 682 W/m2
10:28 67.8 °F /  19.9 °C 46.9 °F /  8.3 °C 30in /  1014.9hPa NE 0.9mph /  1.4km/h 4mph /  6.4km/h 47% 0in /  0.0mm 691 W/m2
10:33 68.2 °F /  20.1 °C 47.1 °F /  8.4 °C 30in /  1014.9hPa ESE 0.9mph /  1.4km/h 10mph /  16.1km/h 47% 0in /  0.0mm 707 W/m2
10:38 68.4 °F /  20.2 °C 47.3 °F /  8.5 °C 30in /  1014.9hPa NE 4mph /  6.4km/h 9mph /  14.5km/h 47% 0in /  0.0mm 715 W/m2
10:43 68.4 °F /  20.2 °C 47.3 °F /  8.5 °C 30in /  1014.9hPa ENE 2mph /  3.2km/h 5mph /  8km/h 47% 0in /  0.0mm 728 W/m2
10:48 68.7 °F /  20.4 °C 47.7 °F /  8.7 °C 30in /  1014.9hPa ENE 2.9mph /  4.7km/h 6mph /  9.7km/h 47% 0in /  0.0mm 740 W/m2
10:53 69.1 °F /  20.6 °C 47.5 °F /  8.6 °C 30in /  1014.9hPa ESE 2.9mph /  4.7km/h 6mph /  9.7km/h 46% 0in /  0.0mm 751 W/m2
10:58 69.3 °F /  20.7 °C 46.4 °F /  8 °C 30in /  1014.9hPa East 6mph /  9.7km/h 9mph /  14.5km/h 44% 0in /  0.0mm 758 W/m2
11:03 69.6 °F /  20.9 °C 47.3 °F /  8.5 °C 30in /  1014.9hPa NE 4.9mph /  7.9km/h 8mph /  12.9km/h 45% 0in /  0.0mm 768 W/m2
11:08 70 °F /  21.1 °C 46.4 °F /  8 °C 30in /  1014.9hPa East 2mph /  3.2km/h 6mph /  9.7km/h 43% 0in /  0.0mm 780 W/m2
11:13 70.2 °F /  21.2 °C 46.6 °F /  8.1 °C 30in /  1014.9hPa ESE 4mph /  6.4km/h 4mph /  6.4km/h 43% 0in /  0.0mm 791 W/m2
11:18 70.3 °F /  21.3 °C 47.5 °F /  8.6 °C 30in /  1014.9hPa East 2mph /  3.2km/h 3mph /  4.8km/h 44% 0in /  0.0mm 798 W/m2
11:23 70.5 °F /  21.4 °C 46.9 °F /  8.3 °C 30in /  1014.6hPa East 4.9mph /  7.9km/h 8mph /  12.9km/h 43% 0in /  0.0mm 805 W/m2
11:28 70.3 °F /  21.3 °C 46.8 °F /  8.2 °C 30in /  1014.6hPa ESE 2.9mph /  4.7km/h 6mph /  9.7km/h 43% 0in /  0.0mm 816 W/m2
11:33 70.5 °F /  21.4 °C 48.2 °F /  9 °C 30in /  1014.6hPa ESE 2mph /  3.2km/h 4mph /  6.4km/h 45% 0in /  0.0mm 826 W/m2
11:38 71.1 °F /  21.7 °C 48 °F /  8.9 °C 30in /  1014.6hPa ENE 2.9mph /  4.7km/h 8mph /  12.9km/h 44% 0in /  0.0mm 837 W/m2
11:43 71.4 °F /  21.9 °C 46.6 °F /  8.1 °C 30in /  1014.6hPa East 2mph /  3.2km/h 5mph /  8km/h 41% 0in /  0.0mm 844 W/m2
11:48 71.8 °F /  22.1 °C 46.8 °F /  8.2 °C 30in /  1014.6hPa ENE 0.9mph /  1.4km/h 9mph /  14.5km/h 41% 0in /  0.0mm 853 W/m2
11:53 71.8 °F /  22.1 °C 47.5 °F /  8.6 °C 30in /  1014.6hPa ENE 0.9mph /  1.4km/h 7mph /  11.3km/h 42% 0in /  0.0mm 863 W/m2
11:58 72.1 °F /  22.3 °C 47.8 °F /  8.8 °C 30in /  1014.6hPa SSE 4mph /  6.4km/h 4mph /  6.4km/h 42% 0in /  0.0mm 870 W/m2
12:03 72.3 °F /  22.4 °C 47.3 °F /  8.5 °C 30in /  1014.6hPa NNE 0.9mph /  1.4km/h 3mph /  4.8km/h 41% 0in /  0.0mm 872 W/m2
12:08 72.7 °F /  22.6 °C 46.9 °F /  8.3 °C 30in /  1014.6hPa NE 4.9mph /  7.9km/h 5mph /  8km/h 40% 0in /  0.0mm 875 W/m2
12:13 72.9 °F /  22.7 °C 46.4 °F /  8 °C 30in /  1014.2hPa East 2mph /  3.2km/h 7mph /  11.3km/h 39% 0in /  0.0mm 882 W/m2
12:18 73 °F /  22.8 °C 46.6 °F /  8.1 °C 30in /  1014.2hPa ENE 4.9mph /  7.9km/h 9mph /  14.5km/h 39% 0in /  0.0mm 889 W/m2
12:23 73 °F /  22.8 °C 46.6 °F /  8.1 °C 30in /  1014.2hPa North 2mph /  3.2km/h 7mph /  11.3km/h 39% 0in /  0.0mm 898 W/m2
12:28 73 °F /  22.8 °C 45.1 °F /  7.3 °C 30in /  1014.2hPa NNE 2.9mph /  4.7km/h 7mph /  11.3km/h 37% 0in /  0.0mm 900 W/m2
12:33 73.6 °F /  23.1 °C 47.1 °F /  8.4 °C 30in /  1014.2hPa ESE 2.9mph /  4.7km/h 5mph /  8km/h 39% 0in /  0.0mm 902 W/m2
12:38 73.2 °F /  22.9 °C 43.9 °F /  6.6 °C 30in /  1014.2hPa NNE 2.9mph /  4.7km/h 8mph /  12.9km/h 35% 0in /  0.0mm 911 W/m2
12:43 73.2 °F /  22.9 °C 45.3 °F /  7.4 °C 30in /  1014.2hPa ESE 2mph /  3.2km/h 7mph /  11.3km/h 37% 0in /  0.0mm 919 W/m2
12:48 73.6 °F /  23.1 °C 45.7 °F /  7.6 °C 30in /  1014.2hPa SE 2.9mph /  4.7km/h 8mph /  12.9km/h 37% 0in /  0.0mm 919 W/m2
12:53 73.9 °F /  23.3 °C 46 °F /  7.8 °C 30in /  1014.2hPa East 4mph /  6.4km/h 9mph /  14.5km/h 37% 0in /  0.0mm 923 W/m2
12:58 74.1 °F /  23.4 °C 44.8 °F /  7.1 °C 29.9in /  1013.9hPa ENE 4mph /  6.4km/h 9mph /  14.5km/h 35% 0in /  0.0mm 928 W/m2
13:03 74.5 °F /  23.6 °C 45.9 °F /  7.7 °C 30in /  1014.2hPa SSE 2mph /  3.2km/h 4mph /  6.4km/h 36% 0in /  0.0mm 930 W/m2
13:08 75 °F /  23.9 °C 46.2 °F /  7.9 °C 29.9in /  1013.9hPa ENE 4mph /  6.4km/h 9mph /  14.5km/h 36% 0in /  0.0mm 933 W/m2
13:13 75 °F /  23.9 °C 45.5 °F /  7.5 °C 29.9in /  1013.9hPa ENE 0.9mph /  1.4km/h 9mph /  14.5km/h 35% 0in /  0.0mm 935 W/m2
13:18 74.8 °F /  23.8 °C 43.9 °F /  6.6 °C 29.9in /  1013.9hPa ENE 2mph /  3.2km/h 11mph /  17.7km/h 33% 0in /  0.0mm 942 W/m2
13:23 74.8 °F /  23.8 °C 43.9 °F /  6.6 °C 29.9in /  1013.5hPa East 2.9mph /  4.7km/h 4mph /  6.4km/h 33% 0in /  0.0mm 951 W/m2
13:28 75.2 °F /  24 °C 45.7 °F /  7.6 °C 29.9in /  1013.9hPa NE 4mph /  6.4km/h 11mph /  17.7km/h 35% 0in /  0.0mm 951 W/m2
13:33 75.6 °F /  24.2 °C 45.1 °F /  7.3 °C 29.9in /  1013.9hPa East 4mph /  6.4km/h 6mph /  9.7km/h 34% 0in /  0.0mm 953 W/m2
13:38 75.6 °F /  24.2 °C 44.4 °F /  6.9 °C 29.9in /  1013.5hPa East 2mph /  3.2km/h 7mph /  11.3km/h 33% 0in /  0.0mm 949 W/m2
13:43 75.7 °F /  24.3 °C 43 °F /  6.1 °C 29.9in /  1013.5hPa SE 2.9mph /  4.7km/h 6mph /  9.7km/h 31% 0in /  0.0mm 951 W/m2
13:48 75.7 °F /  24.3 °C 44.6 °F /  7 °C 29.9in /  1013.5hPa NE 4mph /  6.4km/h 9mph /  14.5km/h 33% 0in /  0.0mm 953 W/m2
13:53 76.1 °F /  24.5 °C 44.1 °F /  6.7 °C 29.9in /  1013.5hPa ESE 2mph /  3.2km/h 5mph /  8km/h 32% 0in /  0.0mm 953 W/m2
13:58 75.9 °F /  24.4 °C 43.2 °F /  6.2 °C 29.9in /  1013.5hPa NE 2.9mph /  4.7km/h 8mph /  12.9km/h 31% 0in /  0.0mm 951 W/m2
14:03 75.9 °F /  24.4 °C 45.5 °F /  7.5 °C 29.9in /  1013.5hPa East 2mph /  3.2km/h 4mph /  6.4km/h 34% 0in /  0.0mm 949 W/m2
14:08 76.3 °F /  24.6 °C 45.1 °F /  7.3 °C 29.9in /  1013.5hPa North 4mph /  6.4km/h 7mph /  11.3km/h 33% 0in /  0.0mm 947 W/m2
14:13 76.5 °F /  24.7 °C 47.5 °F /  8.6 °C 29.9in /  1013.5hPa ENE 0.9mph /  1.4km/h 6mph /  9.7km/h 36% 0in /  0.0mm 940 W/m2
14:18 76.6 °F /  24.8 °C 43.7 °F /  6.5 °C 29.9in /  1013.5hPa NE 2.9mph /  4.7km/h 4mph /  6.4km/h 31% 0in /  0.0mm 940 W/m2
14:23 77 °F /  25 °C 45.7 °F /  7.6 °C 29.9in /  1013.2hPa ESE 2mph /  3.2km/h 6mph /  9.7km/h 33% 0in /  0.0mm 939 W/m2
14:28 77 °F /  25 °C 45 °F /  7.2 °C 29.9in /  1013.2hPa South 2.9mph /  4.7km/h 5mph /  8km/h 32% 0in /  0.0mm 933 W/m2
14:33 77.2 °F /  25.1 °C 45 °F /  7.2 °C 29.9in /  1013.2hPa ESE 2mph /  3.2km/h 7mph /  11.3km/h 32% 0in /  0.0mm 935 W/m2
14:38 77.2 °F /  25.1 °C 45.9 °F /  7.7 °C 29.9in /  1013.2hPa ENE 0.9mph /  1.4km/h 6mph /  9.7km/h 33% 0in /  0.0mm 939 W/m2
14:43 77.2 °F /  25.1 °C 45.9 °F /  7.7 °C 29.9in /  1013.2hPa ENE 4.9mph /  7.9km/h 6mph /  9.7km/h 33% 0in /  0.0mm 933 W/m2
14:48 77.4 °F /  25.2 °C 46.8 °F /  8.2 °C 29.9in /  1012.9hPa Calm   5mph /  8km/h 34% 0in /  0.0mm 932 W/m2
14:53 77.5 °F /  25.3 °C 46.2 °F /  7.9 °C 29.9in /  1012.9hPa ENE 4.9mph /  7.9km/h 8mph /  12.9km/h 33% 0in /  0.0mm 926 W/m2
14:58 77.5 °F /  25.3 °C 46.2 °F /  7.9 °C 29.9in /  1012.9hPa NNE 2.9mph /  4.7km/h 5mph /  8km/h 33% 0in /  0.0mm 925 W/m2
15:03 77.4 °F /  25.2 °C 46.8 °F /  8.2 °C 29.9in /  1012.9hPa SE 2.9mph /  4.7km/h 7mph /  11.3km/h 34% 0in /  0.0mm 923 W/m2
15:08 77.4 °F /  25.2 °C 46 °F /  7.8 °C 29.9in /  1012.9hPa ENE 2.9mph /  4.7km/h 6mph /  9.7km/h 33% 0in /  0.0mm 912 W/m2
15:13 77.7 °F /  25.4 °C 46.4 °F /  8 °C 29.9in /  1012.9hPa NNE 2.9mph /  4.7km/h 6mph /  9.7km/h 33% 0in /  0.0mm 905 W/m2
15:18 77.7 °F /  25.4 °C 46.4 °F /  8 °C 29.9in /  1012.9hPa ESE 6.9mph /  11.1km/h 8mph /  12.9km/h 33% 0in /  0.0mm 900 W/m2
15:23 77.7 °F /  25.4 °C 45.5 °F /  7.5 °C 29.9in /  1012.9hPa NE 0.9mph /  1.4km/h 6mph /  9.7km/h 32% 0in /  0.0mm 893 W/m2
15:28 77.7 °F /  25.4 °C 45.5 °F /  7.5 °C 29.9in /  1012.9hPa NNE 2.9mph /  4.7km/h 8mph /  12.9km/h 32% 0in /  0.0mm 882 W/m2
15:34 78.1 °F /  25.6 °C 46.6 °F /  8.1 °C 29.9in /  1012.9hPa North 4mph /  6.4km/h 6mph /  9.7km/h 33% 0in /  0.0mm 877 W/m2
15:39 78.3 °F /  25.7 °C 46.8 °F /  8.2 °C 29.9in /  1012.9hPa SW 2mph /  3.2km/h 6mph /  9.7km/h 33% 0in /  0.0mm 868 W/m2
15:44 78.1 °F /  25.6 °C 45.9 °F /  7.7 °C 29.9in /  1012.9hPa East 2mph /  3.2km/h 7mph /  11.3km/h 32% 0in /  0.0mm 863 W/m2
15:49 77.7 °F /  25.4 °C 45.5 °F /  7.5 °C 29.9in /  1012.9hPa ENE 2.9mph /  4.7km/h 11mph /  17.7km/h 32% 0in /  0.0mm 854 W/m2
15:54 78.1 °F /  25.6 °C 45.9 °F /  7.7 °C 29.9in /  1012.9hPa ENE 2mph /  3.2km/h 6mph /  9.7km/h 32% 0in /  0.0mm 844 W/m2
15:59 78.4 °F /  25.8 °C 47.7 °F /  8.7 °C 29.9in /  1012.9hPa ENE 2mph /  3.2km/h 11mph /  17.7km/h 34% 0in /  0.0mm 842 W/m2
16:04 78.6 °F /  25.9 °C 45.5 °F /  7.5 °C 29.9in /  1012.5hPa NE 0.9mph /  1.4km/h 7mph /  11.3km/h 31% 0in /  0.0mm 831 W/m2
16:09 78.4 °F /  25.8 °C 46.2 °F /  7.9 °C 29.9in /  1012.5hPa North 4.9mph /  7.9km/h 7mph /  11.3km/h 32% 0in /  0.0mm 823 W/m2
16:14 78.4 °F /  25.8 °C 46.2 °F /  7.9 °C 29.9in /  1012.5hPa East 2.9mph /  4.7km/h 6mph /  9.7km/h 32% 0in /  0.0mm 814 W/m2
16:19 78.4 °F /  25.8 °C 46.9 °F /  8.3 °C 29.9in /  1012.5hPa SE 4mph /  6.4km/h 7mph /  11.3km/h 33% 0in /  0.0mm 800 W/m2
16:24 78.8 °F /  26 °C 46.4 °F /  8 °C 29.9in /  1012.5hPa ESE 2mph /  3.2km/h 4mph /  6.4km/h 32% 0in /  0.0mm 791 W/m2
16:29 79.2 °F /  26.2 °C 45.9 °F /  7.7 °C 29.9in /  1012.5hPa NE 2.9mph /  4.7km/h 3mph /  4.8km/h 31% 0in /  0.0mm 780 W/m2
16:34 79.2 °F /  26.2 °C 47.7 °F /  8.7 °C 29.9in /  1012.5hPa East 2mph /  3.2km/h 8mph /  12.9km/h 33% 0in /  0.0mm 773 W/m2
16:39 79.2 °F /  26.2 °C 46.8 °F /  8.2 °C 29.9in /  1012.5hPa SSE 2mph /  3.2km/h 10mph /  16.1km/h 32% 0in /  0.0mm 758 W/m2
16:44 79 °F /  26.1 °C 47.5 °F /  8.6 °C 29.9in /  1012.2hPa East 2mph /  3.2km/h 2mph /  3.2km/h 33% 0in /  0.0mm 747 W/m2
16:49 79.2 °F /  26.2 °C 47.7 °F /  8.7 °C 29.9in /  1012.2hPa East 0.9mph /  1.4km/h 3mph /  4.8km/h 33% 0in /  0.0mm 737 W/m2
16:54 79.2 °F /  26.2 °C 46.8 °F /  8.2 °C 29.9in /  1012.2hPa ENE 4.9mph /  7.9km/h 5mph /  8km/h 32% 0in /  0.0mm 724 W/m2
16:59 79.2 °F /  26.2 °C 46.8 °F /  8.2 °C 29.9in /  1012.2hPa East 2mph /  3.2km/h 5mph /  8km/h 32% 0in /  0.0mm 710 W/m2
17:04 79.2 °F /  26.2 °C 47.7 °F /  8.7 °C 29.9in /  1012.2hPa SE 0.9mph /  1.4km/h 3mph /  4.8km/h 33% 0in /  0.0mm 696 W/m2
17:09 79.2 °F /  26.2 °C 46.8 °F /  8.2 °C 29.9in /  1012.2hPa NE 2.9mph /  4.7km/h 6mph /  9.7km/h 32% 0in /  0.0mm 686 W/m2
17:14 78.8 °F /  26 °C 46.4 °F /  8 °C 29.9in /  1012.2hPa ESE 4mph /  6.4km/h 10mph /  16.1km/h 32% 0in /  0.0mm 673 W/m2
17:19 78.3 °F /  25.7 °C 45.1 °F /  7.3 °C 29.9in /  1012.2hPa NE 2.9mph /  4.7km/h 7mph /  11.3km/h 31% 0in /  0.0mm 657 W/m2
17:45 79.3 °F /  26.3 °C 47.7 °F /  8.7 °C 29.9in /  1011.9hPa ENE 2mph /  3.2km/h 3mph /  4.8km/h 33% 0in /  0.0mm 587 W/m2
17:50 79.3 °F /  26.3 °C 47.7 °F /  8.7 °C 29.9in /  1011.9hPa ENE 2mph /  3.2km/h 4mph /  6.4km/h 33% 0in /  0.0mm 575 W/m2
17:55 79.2 °F /  26.2 °C 46.8 °F /  8.2 °C 29.9in /  1011.9hPa ENE 2mph /  3.2km/h 4mph /  6.4km/h 32% 0in /  0.0mm 559 W/m2
18:01 79.2 °F /  26.2 °C 46.8 °F /  8.2 °C 29.9in /  1011.9hPa Calm   3mph /  4.8km/h 32% 0in /  0.0mm 545 W/m2
18:06 79.2 °F /  26.2 °C 48.4 °F /  9.1 °C 29.9in /  1011.5hPa East 0.9mph /  1.4km/h 4mph /  6.4km/h 34% 0in /  0.0mm 527 W/m2
18:11 79.2 °F /  26.2 °C 46.8 °F /  8.2 °C 29.9in /  1011.5hPa ESE 4mph /  6.4km/h 4mph /  6.4km/h 32% 0in /  0.0mm 513 W/m2
18:16 79.2 °F /  26.2 °C 46.8 °F /  8.2 °C 29.9in /  1011.5hPa ENE 0.9mph /  1.4km/h 3mph /  4.8km/h 32% 0in /  0.0mm 497 W/m2
18:21 79.3 °F /  26.3 °C 47.7 °F /  8.7 °C 29.9in /  1011.5hPa East 4mph /  6.4km/h 4mph /  6.4km/h 33% 0in /  0.0mm 475 W/m2
18:26 79.3 °F /  26.3 °C 46 °F /  7.8 °C 29.9in /  1011.5hPa SSE 0.9mph /  1.4km/h 3mph /  4.8km/h 31% 0in /  0.0mm 436 W/m2
18:31 79.5 °F /  26.4 °C 47.8 °F /  8.8 °C 29.9in /  1011.5hPa ESE 2mph /  3.2km/h 4mph /  6.4km/h 33% 0in /  0.0mm 403 W/m2
18:36 79.3 °F /  26.3 °C 47.7 °F /  8.7 °C 29.9in /  1011.5hPa East 2.9mph /  4.7km/h 4mph /  6.4km/h 33% 0in /  0.0mm 369 W/m2
18:41 79.2 °F /  26.2 °C 47.7 °F /  8.7 °C 29.9in /  1011.5hPa NE 6mph /  9.7km/h 6mph /  9.7km/h 33% 0in /  0.0mm 343 W/m2
18:46 79.2 °F /  26.2 °C 46.8 °F /  8.2 °C 29.9in /  1011.5hPa East 0.9mph /  1.4km/h 4mph /  6.4km/h 32% 0in /  0.0mm 320 W/m2
18:51 79.2 °F /  26.2 °C 46.8 °F /  8.2 °C 29.9in /  1011.5hPa ENE 2mph /  3.2km/h 4mph /  6.4km/h 32% 0in /  0.0mm 292 W/m2
18:56 79 °F /  26.1 °C 45.7 °F /  7.6 °C 29.9in /  1011.5hPa East 2mph /  3.2km/h 8mph /  12.9km/h 31% 0in /  0.0mm 265 W/m2
19:01 78.8 °F /  26 °C 45.7 °F /  7.6 °C 29.9in /  1011.5hPa NE 2.9mph /  4.7km/h 4mph /  6.4km/h 31% 0in /  0.0mm 260 W/m2
19:06 78.6 °F /  25.9 °C 44.6 °F /  7 °C 29.9in /  1011.5hPa ENE 4.9mph /  7.9km/h 8mph /  12.9km/h 30% 0in /  0.0mm 272 W/m2
19:11 78.4 °F /  25.8 °C 45.3 °F /  7.4 °C 29.9in /  1011.5hPa NNE 2mph /  3.2km/h 8mph /  12.9km/h 31% 0in /  0.0mm 295 W/m2
19:16 78.4 °F /  25.8 °C 46.2 °F /  7.9 °C 29.9in /  1011.5hPa East 2.9mph /  4.7km/h 4mph /  6.4km/h 32% 0in /  0.0mm 306 W/m2
19:21 78.4 °F /  25.8 °C 45.3 °F /  7.4 °C 29.9in /  1011.5hPa East 2mph /  3.2km/h 3mph /  4.8km/h 31% 0in /  0.0mm 306 W/m2
19:26 78.6 °F /  25.9 °C 47.1 °F /  8.4 °C 29.9in /  1011.5hPa East 2mph /  3.2km/h 4mph /  6.4km/h 33% 0in /  0.0mm 292 W/m2
19:31 78.6 °F /  25.9 °C 46.2 °F /  7.9 °C 29.9in /  1011.2hPa ESE 2.9mph /  4.7km/h 4mph /  6.4km/h 32% 0in /  0.0mm 272 W/m2
19:36 78.6 °F /  25.9 °C 46.2 °F /  7.9 °C 29.9in /  1011.5hPa Calm   3mph /  4.8km/h 32% 0in /  0.0mm 243 W/m2
19:41 78.8 °F /  26 °C 48 °F /  8.9 °C 29.9in /  1011.5hPa East 0.9mph /  1.4km/h 1mph /  1.6km/h 34% 0in /  0.0mm 199 W/m2
19:46 78.6 °F /  25.9 °C 46.2 °F /  7.9 °C 29.9in /  1011.5hPa SE 2mph /  3.2km/h 3mph /  4.8km/h 32% 0in /  0.0mm 176 W/m2
19:51 78.6 °F /  25.9 °C 44.6 °F /  7 °C 29.9in /  1011.5hPa East 0.9mph /  1.4km/h 6mph /  9.7km/h 30% 0in /  0.0mm 169 W/m2
19:56 78.4 °F /  25.8 °C 46.9 °F /  8.3 °C 29.9in /  1011.5hPa East 0.9mph /  1.4km/h 2mph /  3.2km/h 33% 0in /  0.0mm 171 W/m2
20:01 78.1 °F /  25.6 °C 45 °F /  7.2 °C 29.9in /  1011.5hPa East 2.9mph /  4.7km/h 6mph /  9.7km/h 31% 0in /  0.0mm 167 W/m2
20:06 77.7 °F /  25.4 °C 44.6 °F /  7 °C 29.9in /  1011.5hPa ESE 2.9mph /  4.7km/h 8mph /  12.9km/h 31% 0in /  0.0mm 153 W/m2
20:11 77.4 °F /  25.2 °C 45.1 °F /  7.3 °C 29.9in /  1011.5hPa SE 0.9mph /  1.4km/h 7mph /  11.3km/h 32% 0in /  0.0mm 137 W/m2
20:16 77.4 °F /  25.2 °C 44.4 °F /  6.9 °C 29.9in /  1011.5hPa ESE 0.9mph /  1.4km/h 8mph /  12.9km/h 31% 0in /  0.0mm 123 W/m2
20:21 77.4 °F /  25.2 °C 44.4 °F /  6.9 °C 29.9in /  1011.5hPa SSE 2mph /  3.2km/h 3mph /  4.8km/h 31% 0in /  0.0mm 111 W/m2
20:26 77.2 °F /  25.1 °C 47.5 °F /  8.6 °C 29.9in /  1011.5hPa Calm   1mph /  1.6km/h 35% 0in /  0.0mm 97 W/m2
20:31 76.8 °F /  24.9 °C 45.5 °F /  7.5 °C 29.9in /  1011.5hPa Calm   1mph /  1.6km/h 33% 0in /  0.0mm 81 W/m2
20:36 76.6 °F /  24.8 °C 46.9 °F /  8.3 °C 29.9in /  1011.5hPa Calm   1mph /  1.6km/h 35% 0in /  0.0mm 67 W/m2
20:41 76.3 °F /  24.6 °C 48 °F /  8.9 °C 29.9in /  1011.5hPa Calm   2mph /  3.2km/h 37% 0in /  0.0mm 62 W/m2
20:46 75.7 °F /  24.3 °C 48.4 °F /  9.1 °C 29.9in /  1011.5hPa SSE 0.9mph /  1.4km/h 3mph /  4.8km/h 38% 0in /  0.0mm 53 W/m2
20:51 75.6 °F /  24.2 °C 48.9 °F /  9.4 °C 29.9in /  1011.5hPa SSE 0.9mph /  1.4km/h 1mph /  1.6km/h 39% 0in /  0.0mm 46 W/m2
20:56 75.4 °F /  24.1 °C 48.7 °F /  9.3 °C 29.9in /  1011.5hPa SSE 0.9mph /  1.4km/h 1mph /  1.6km/h 39% 0in /  0.0mm 37 W/m2
21:01 75 °F /  23.9 °C 49.1 °F /  9.5 °C 29.9in /  1011.5hPa SSE 0.9mph /  1.4km/h 3mph /  4.8km/h 40% 0in /  0.0mm 30 W/m2
21:06 74.5 °F /  23.6 °C 49.3 °F /  9.6 °C 29.9in /  1011.5hPa Calm   1mph /  1.6km/h 41% 0in /  0.0mm 23 W/m2
21:11 73.8 °F /  23.2 °C 49.3 °F /  9.6 °C 29.9in /  1011.5hPa Calm   3mph /  4.8km/h 42% 0in /  0.0mm 14 W/m2
21:16 73 °F /  22.8 °C 49.3 °F /  9.6 °C 29.9in /  1011.5hPa SSE 0.9mph /  1.4km/h 3mph /  4.8km/h 43% 0in /  0.0mm 12 W/m2
21:21 72.1 °F /  22.3 °C 49.1 °F /  9.5 °C 29.9in /  1011.9hPa SSE 0.9mph /  1.4km/h 3mph /  4.8km/h 44% 0in /  0.0mm 9 W/m2
21:26 71.2 °F /  21.8 °C 48.7 °F /  9.3 °C 29.9in /  1011.9hPa SSE 0.9mph /  1.4km/h 3mph /  4.8km/h 45% 0in /  0.0mm 7 W/m2
21:31 70.3 °F /  21.3 °C 48.6 °F /  9.2 °C 29.9in /  1011.9hPa SSE 2.9mph /  4.7km/h 3mph /  4.8km/h 46% 0in /  0.0mm 5 W/m2
21:36 69.6 °F /  20.9 °C 48.6 °F /  9.2 °C 29.9in /  1011.9hPa SSE 0.9mph /  1.4km/h 1mph /  1.6km/h 47% 0in /  0.0mm 0 W/m2
21:41 68.9 °F /  20.5 °C 48.4 °F /  9.1 °C 29.9in /  1011.9hPa Calm   3mph /  4.8km/h 48% 0in /  0.0mm 0 W/m2
21:46 68.2 °F /  20.1 °C 48.9 °F /  9.4 °C 29.9in /  1011.9hPa SSE 0.9mph /  1.4km/h 3mph /  4.8km/h 50% 0in /  0.0mm 0 W/m2
21:51 67.5 °F /  19.7 °C 48.2 °F /  9 °C 29.9in /  1011.9hPa SSE 0.9mph /  1.4km/h 3mph /  4.8km/h 50% 0in /  0.0mm 0 W/m2
21:56 66.7 °F /  19.3 °C 48 °F /  8.9 °C 29.9in /  1011.9hPa Calm     51% 0in /  0.0mm 0 W/m2
22:01 66.4 °F /  19.1 °C 48.2 °F /  9 °C 29.9in /  1011.9hPa Calm   2mph /  3.2km/h 52% 0in /  0.0mm 0 W/m2
22:06 65.7 °F /  18.7 °C 47.5 °F /  8.6 °C 29.9in /  1011.9hPa Calm   1mph /  1.6km/h 52% 0in /  0.0mm 0 W/m2
22:12 65.3 °F /  18.5 °C 47.7 °F /  8.7 °C 29.9in /  1011.9hPa Calm     53% 0in /  0.0mm 0 W/m2
22:17 64.9 °F /  18.3 °C 47.8 °F /  8.8 °C 29.9in /  1012.2hPa SSE 0.9mph /  1.4km/h 3mph /  4.8km/h 54% 0in /  0.0mm 0 W/m2
22:22 64.8 °F /  18.2 °C 48.2 °F /  9 °C 29.9in /  1012.2hPa SSE 0.9mph /  1.4km/h 3mph /  4.8km/h 55% 0in /  0.0mm 0 W/m2
22:27 64.6 °F /  18.1 °C 48.6 °F /  9.2 °C 29.9in /  1012.2hPa Calm   3mph /  4.8km/h 56% 0in /  0.0mm 0 W/m2
22:32 64.2 °F /  17.9 °C 48.2 °F /  9 °C 29.9in /  1012.2hPa SSE 0.9mph /  1.4km/h 1mph /  1.6km/h 56% 0in /  0.0mm 0 W/m2
22:37 64 °F /  17.8 °C 48.6 °F /  9.2 °C 29.9in /  1012.2hPa SSE 0.9mph /  1.4km/h 1mph /  1.6km/h 57% 0in /  0.0mm 0 W/m2
22:42 63.7 °F /  17.6 °C 48.6 °F /  9.2 °C 29.9in /  1012.2hPa Calm   1mph /  1.6km/h 58% 0in /  0.0mm 0 W/m2
22:47 63.3 °F /  17.4 °C 48.4 °F /  9.1 °C 29.9in /  1012.2hPa Calm     58% 0in /  0.0mm 0 W/m2
22:52 63.1 °F /  17.3 °C 48.6 °F /  9.2 °C 29.9in /  1012.2hPa Calm   3mph /  4.8km/h 59% 0in /  0.0mm 0 W/m2
22:57 62.8 °F /  17.1 °C 48.7 °F /  9.3 °C 29.9in /  1012.2hPa SSE 0.9mph /  1.4km/h 3mph /  4.8km/h 60% 0in /  0.0mm 0 W/m2
23:02 62.4 °F /  16.9 °C 47.8 °F /  8.8 °C 29.9in /  1012.2hPa SSE 0.9mph /  1.4km/h 3mph /  4.8km/h 59% 0in /  0.0mm 0 W/m2
23:07 62.2 °F /  16.8 °C 48.2 °F /  9 °C 29.9in /  1012.5hPa Calm   1mph /  1.6km/h 60% 0in /  0.0mm 0 W/m2
23:12 62.1 °F /  16.7 °C 48.4 °F /  9.1 °C 29.9in /  1012.5hPa Calm   3mph /  4.8km/h 61% 0in /  0.0mm 0 W/m2
23:17 61.9 °F /  16.6 °C 48.2 °F /  9 °C 29.9in /  1012.5hPa Calm   1mph /  1.6km/h 61% 0in /  0.0mm 0 W/m2
23:22 61.5 °F /  16.4 °C 48 °F /  8.9 °C 29.9in /  1012.5hPa Calm   3mph /  4.8km/h 61% 0in /  0.0mm 0 W/m2
23:27 61.3 °F /  16.3 °C 48.2 °F /  9 °C 29.9in /  1012.5hPa Calm   1mph /  1.6km/h 62% 0in /  0.0mm 0 W/m2
23:32 61.2 °F /  16.2 °C 48.4 °F /  9.1 °C 29.9in /  1012.5hPa Calm   2mph /  3.2km/h 63% 0in /  0.0mm 0 W/m2
23:37 61.2 °F /  16.2 °C 48.4 °F /  9.1 °C 29.9in /  1012.5hPa Calm     63% 0in /  0.0mm 0 W/m2
23:42 61 °F /  16.1 °C 48.4 °F /  9.1 °C 29.9in /  1012.5hPa Calm     63% 0in /  0.0mm 0 W/m2
23:47 60.6 °F /  15.9 °C 48 °F /  8.9 °C 29.9in /  1012.5hPa Calm     63% 0in /  0.0mm 0 W/m2
23:52 60.4 °F /  15.8 °C 48.2 °F /  9 °C 29.9in /  1012.5hPa Calm     64% 0in /  0.0mm 0 W/m2
23:57 60.3 °F /  15.7 °C 48 °F /  8.9 °C 29.9in /  1012.5hPa Calm     64% 0in /  0.0mm 0 W/m2
Juneau County Weather
Compliments of Weather Underground - 4 mb